Time;durP1;ratioP1;P1;durP2;ratioP2;P2;SDS_P1;SDS_P2;PMS_P1;PMS_P2;Temp;Humidity;BMP_temperature;BMP_pressure;BME280_temperature;BME280_humidity;BME280_pressure;Samples;Min_cycle;Max_cycle;Signal;HPM_P1;HPM_P2
2022/01/16 00:00:20;;;;;;;;;;;1.00;99.90;;;;;;5072234;28;19926;-74
2022/01/16 00:05:24;;;;;;;;;;;1.00;99.90;;;;;;5083564;28;19967;-74
2022/01/16 00:07:51;;;;;;;;;;;0.90;99.90;;;;;;5077761;28;19920;-74
2022/01/16 00:10:18;;;;;;;;;;;0.90;99.90;;;;;;5080116;28;20071;-74
2022/01/16 00:12:49;;;;;;;;;;;0.90;99.90;;;;;;5078135;28;19924;-74
2022/01/16 00:15:16;;;;;;;;;;;0.80;99.90;;;;;;5093560;28;20386;-75
2022/01/16 00:18:06;;;;;;;;;;;0.80;99.90;;;;;;5092427;28;19958;-75
2022/01/16 00:20:33;;;;;;;;;;;0.90;99.90;;;;;;5084314;28;19924;-74
2022/01/16 00:23:03;;;;;;;;;;;0.90;99.90;;;;;;5083376;28;20002;-74
2022/01/16 00:25:34;;;;;;;;;;;0.80;99.90;;;;;;5072882;28;19924;-75
2022/01/16 00:28:01;;;;;;;;;;;0.80;99.90;;;;;;5057150;28;20020;-74
2022/01/16 00:30:27;;;;;;;;;;;0.80;99.90;;;;;;5090624;28;20014;-74
2022/01/16 00:32:59;;;;;;;;;;;0.80;99.90;;;;;;5084613;28;19921;-75
2022/01/16 00:35:25;;;;;;;;;;;0.80;99.90;;;;;;5078638;28;19926;-75
2022/01/16 00:37:52;;;;;;;;;;;0.80;99.90;;;;;;5081324;28;19920;-74
2022/01/16 00:40:19;;;;;;;;;;;0.90;99.90;;;;;;5075974;28;19971;-74
2022/01/16 00:42:45;;;;;;;;;;;0.90;99.90;;;;;;5080851;28;19975;-74
2022/01/16 00:45:13;;;;;;;;;;;0.90;99.90;;;;;;5076617;28;19927;-74
2022/01/16 00:47:39;;;;;;;;;;;0.90;99.90;;;;;;5071445;28;19943;-74
2022/01/16 00:50:06;;;;;;;;;;;0.90;99.90;;;;;;5074141;28;19935;-75
2022/01/16 00:52:33;;;;;;;;;;;0.90;99.90;;;;;;5080560;28;19935;-74
2022/01/16 00:55:03;;;;;;;;;;;0.90;99.90;;;;;;5077444;28;19934;-74
2022/01/16 00:57:30;;;;;;;;;;;0.90;99.90;;;;;;5072606;28;19924;-74
2022/01/16 00:59:57;;;;;;;;;;;0.80;99.90;;;;;;5077885;28;19927;-74
2022/01/16 01:02:23;;;;;;;;;;;0.90;99.90;;;;;;5095104;28;20298;-74
2022/01/16 01:04:51;;;;;;;;;;;0.80;99.90;;;;;;5090205;28;19920;-74
2022/01/16 01:07:18;;;;;;;;;;;0.80;99.90;;;;;;5084694;28;19920;-74
2022/01/16 01:09:44;;;;;;;;;;;0.80;99.90;;;;;;5072396;28;20362;-74
2022/01/16 01:12:23;;;;;;;;;;;0.90;99.90;;;;;;5073597;28;19924;-74
2022/01/16 01:15:05;;;;;;;;;;;0.90;99.90;;;;;;5082965;28;20290;-74
2022/01/16 01:17:35;;;;;;;;;;;0.90;99.90;;;;;;5074648;28;19974;-74
2022/01/16 01:20:03;;;;;;;;;;;0.90;99.90;;;;;;5073910;28;20004;-74
2022/01/16 01:22:30;;;;;;;;;;;0.90;99.90;;;;;;5073483;28;19920;-74
2022/01/16 01:24:57;;;;;;;;;;;0.90;99.90;;;;;;5074831;28;19921;-74
2022/01/16 01:27:29;;;;;;;;;;;0.90;99.90;;;;;;5061755;28;19995;-74
2022/01/16 01:30:03;;;;;;;;;;;0.90;99.90;;;;;;5076418;28;19926;-74
2022/01/16 01:32:31;;;;;;;;;;;0.90;99.90;;;;;;5074261;28;19924;-74
2022/01/16 01:34:58;;;;;;;;;;;0.90;99.90;;;;;;5072933;28;19921;-74
2022/01/16 01:37:25;;;;;;;;;;;0.90;99.90;;;;;;5087939;28;19945;-75
2022/01/16 01:39:52;;;;;;;;;;;0.90;99.90;;;;;;5083892;28;19921;-75
2022/01/16 01:42:19;;;;;;;;;;;0.90;99.90;;;;;;5086629;28;20566;-75
2022/01/16 01:53:01;;;;;;;;;;;0.90;99.90;;;;;;5080808;28;19924;-73
2022/01/16 01:55:27;;;;;;;;;;;0.90;99.90;;;;;;5078136;28;19926;-74
2022/01/16 01:57:54;;;;;;;;;;;0.90;99.90;;;;;;5077863;28;20003;-74
2022/01/16 02:00:21;;;;;;;;;;;0.80;99.90;;;;;;5080718;28;19926;-74
2022/01/16 02:05:35;;;;;;;;;;;0.80;99.90;;;;;;5052583;28;19995;-74
2022/01/16 02:08:05;;;;;;;;;;;0.80;99.90;;;;;;5072606;28;19920;-73
2022/01/16 02:10:33;;;;;;;;;;;0.80;99.90;;;;;;5081735;28;19920;-74
2022/01/16 02:13:03;;;;;;;;;;;0.80;99.90;;;;;;5082453;28;19921;-74
2022/01/16 02:32:23;;;;;;;;;;;0.80;99.90;;;;;;5063041;28;20381;-74
2022/01/16 02:34:41;;;;;;;;;;;0.80;99.90;;;;;;5075853;28;19928;-74
2022/01/16 02:37:12;;;;;;;;;;;0.80;99.90;;;;;;5080155;28;20016;-74
2022/01/16 02:39:41;;;;;;;;;;;0.80;99.90;;;;;;5084017;28;19959;-74
2022/01/16 02:42:10;;;;;;;;;;;0.80;99.90;;;;;;5090501;28;19985;-74
2022/01/16 02:47:11;;;;;;;;;;;0.80;99.90;;;;;;5077114;28;19920;-74
2022/01/16 02:49:41;;;;;;;;;;;0.80;99.90;;;;;;5077691;28;19926;-74
2022/01/16 02:52:09;;;;;;;;;;;0.80;99.90;;;;;;5078817;28;20400;-75
2022/01/16 02:54:38;;;;;;;;;;;0.80;99.90;;;;;;5077159;28;19921;-75
2022/01/16 02:57:06;;;;;;;;;;;0.80;99.90;;;;;;5076970;28;19926;-74
2022/01/16 02:59:33;;;;;;;;;;;0.80;99.90;;;;;;5086837;28;19997;-74
2022/01/16 03:02:01;;;;;;;;;;;0.80;99.90;;;;;;5089253;28;19931;-75
2022/01/16 03:04:28;;;;;;;;;;;0.80;99.90;;;;;;5088270;28;19962;-74
2022/01/16 03:06:55;;;;;;;;;;;0.80;99.90;;;;;;5092584;28;19971;-74
2022/01/16 03:09:23;;;;;;;;;;;0.80;99.90;;;;;;5075939;28;19920;-74
2022/01/16 03:11:50;;;;;;;;;;;0.80;99.90;;;;;;5092141;28;19927;-75
2022/01/16 03:14:18;;;;;;;;;;;0.80;99.90;;;;;;5085853;28;19920;-75
2022/01/16 03:16:49;;;;;;;;;;;0.80;99.90;;;;;;5085563;28;19959;-75
2022/01/16 03:22:03;;;;;;;;;;;0.80;99.90;;;;;;5080557;28;20034;-75
2022/01/16 03:24:31;;;;;;;;;;;0.70;99.90;;;;;;5076948;28;19921;-75
2022/01/16 03:26:59;;;;;;;;;;;0.70;99.90;;;;;;5079946;28;25009;-75
2022/01/16 03:29:27;;;;;;;;;;;0.60;99.90;;;;;;5077432;28;19935;-75
2022/01/16 03:31:54;;;;;;;;;;;0.60;99.90;;;;;;5076886;28;20027;-74
2022/01/16 03:34:21;;;;;;;;;;;0.60;99.90;;;;;;5087474;28;20302;-75
2022/01/16 03:36:47;;;;;;;;;;;0.60;99.90;;;;;;5078849;28;20016;-73
2022/01/16 03:39:15;;;;;;;;;;;0.50;99.90;;;;;;5081708;28;20381;-74
2022/01/16 03:41:41;;;;;;;;;;;0.50;99.90;;;;;;5088530;28;19928;-75
2022/01/16 03:44:08;;;;;;;;;;;0.50;99.90;;;;;;5081257;28;20027;-74
2022/01/16 03:46:37;;;;;;;;;;;0.50;99.90;;;;;;5084363;28;19931;-74
2022/01/16 03:49:06;;;;;;;;;;;0.60;99.90;;;;;;5082949;28;20403;-75
2022/01/16 03:51:33;;;;;;;;;;;0.60;99.90;;;;;;5078448;28;19928;-75
2022/01/16 03:54:00;;;;;;;;;;;0.50;99.90;;;;;;5085575;28;19959;-75
2022/01/16 03:56:27;;;;;;;;;;;0.50;99.90;;;;;;5079190;28;19925;-74
2022/01/16 03:58:53;;;;;;;;;;;0.50;99.90;;;;;;5074420;28;20054;-74
2022/01/16 04:01:20;;;;;;;;;;;0.40;99.90;;;;;;5080926;28;19924;-74
2022/01/16 04:03:47;;;;;;;;;;;0.40;99.90;;;;;;5077679;28;20366;-74
2022/01/16 04:06:14;;;;;;;;;;;0.40;99.90;;;;;;5083379;28;20620;-75
2022/01/16 04:08:40;;;;;;;;;;;0.40;99.90;;;;;;5089507;28;19930;-74
2022/01/16 04:11:08;;;;;;;;;;;0.40;99.90;;;;;;5085544;28;19952;-74
2022/01/16 04:13:34;;;;;;;;;;;0.40;99.90;;;;;;5090095;28;19950;-74
2022/01/16 04:16:01;;;;;;;;;;;0.40;99.90;;;;;;5084272;28;19967;-73
2022/01/16 04:18:28;;;;;;;;;;;0.30;99.90;;;;;;5080030;28;19931;-74
2022/01/16 04:20:54;;;;;;;;;;;0.30;99.90;;;;;;5072305;28;19932;-74
2022/01/16 04:23:21;;;;;;;;;;;0.30;99.90;;;;;;5079959;28;19935;-73
2022/01/16 04:25:48;;;;;;;;;;;0.30;99.90;;;;;;5079178;28;20394;-74
2022/01/16 04:28:15;;;;;;;;;;;0.30;99.90;;;;;;5072996;28;19920;-74
2022/01/16 04:30:42;;;;;;;;;;;0.30;99.90;;;;;;5071387;28;19924;-74
2022/01/16 04:33:08;;;;;;;;;;;0.30;99.90;;;;;;5081794;28;19959;-73
2022/01/16 04:35:35;;;;;;;;;;;0.30;99.90;;;;;;5071256;28;19920;-74
2022/01/16 04:38:02;;;;;;;;;;;0.30;99.90;;;;;;5094393;28;20022;-74
2022/01/16 04:40:40;;;;;;;;;;;0.30;99.90;;;;;;5084437;28;19943;-74
2022/01/16 04:46:12;;;;;;;;;;;0.30;99.90;;;;;;5098851;28;19919;-74
2022/01/16 04:48:39;;;;;;;;;;;0.30;99.90;;;;;;5096036;28;19919;-74
2022/01/16 04:51:06;;;;;;;;;;;0.30;99.90;;;;;;5097551;28;20010;-74
2022/01/16 04:53:33;;;;;;;;;;;0.30;99.90;;;;;;5098732;28;20002;-74
2022/01/16 04:55:59;;;;;;;;;;;0.40;99.90;;;;;;5089463;28;19934;-74
2022/01/16 04:58:26;;;;;;;;;;;0.40;99.90;;;;;;5100321;28;19920;-74
2022/01/16 05:00:54;;;;;;;;;;;0.40;99.90;;;;;;5097641;28;19920;-74
2022/01/16 05:03:22;;;;;;;;;;;0.40;99.90;;;;;;5086002;28;20522;-74
2022/01/16 05:05:49;;;;;;;;;;;0.40;99.90;;;;;;5098842;28;19963;-74
2022/01/16 05:08:16;;;;;;;;;;;0.40;99.90;;;;;;5103555;27;19947;-74
2022/01/16 05:10:45;;;;;;;;;;;0.40;99.90;;;;;;5112977;27;19919;-74
2022/01/16 05:16:34;;;;;;;;;;;0.40;99.90;;;;;;5090393;28;19923;-74
2022/01/16 05:18:47;;;;;;;;;;;0.40;99.90;;;;;;5101551;28;19919;-74
2022/01/16 05:21:14;;;;;;;;;;;0.40;99.90;;;;;;5090209;28;19984;-74
2022/01/16 05:23:42;;;;;;;;;;;0.40;99.90;;;;;;5080857;28;19920;-74
2022/01/16 05:26:09;;;;;;;;;;;0.40;99.90;;;;;;5081383;28;19963;-74
2022/01/16 05:28:36;;;;;;;;;;;0.40;99.90;;;;;;5069420;28;20337;-74
2022/01/16 05:31:03;;;;;;;;;;;0.40;99.90;;;;;;5076647;28;19942;-74
2022/01/16 05:33:31;;;;;;;;;;;0.40;99.90;;;;;;5083964;28;19924;-74
2022/01/16 05:35:57;;;;;;;;;;;0.40;99.90;;;;;;5083614;28;19926;-73
2022/01/16 05:38:24;;;;;;;;;;;0.40;99.90;;;;;;5082935;28;19923;-74
2022/01/16 05:40:51;;;;;;;;;;;0.30;99.90;;;;;;5081942;28;20031;-73
2022/01/16 05:43:18;;;;;;;;;;;0.30;99.90;;;;;;5078837;28;20363;-74
2022/01/16 05:45:44;;;;;;;;;;;0.30;99.90;;;;;;5080813;28;19927;-73
2022/01/16 05:48:11;;;;;;;;;;;0.30;99.90;;;;;;5076953;28;19942;-74
2022/01/16 05:50:38;;;;;;;;;;;0.30;99.90;;;;;;5071126;28;19920;-74
2022/01/16 05:53:04;;;;;;;;;;;0.30;99.90;;;;;;5072817;28;19963;-73
2022/01/16 05:55:36;;;;;;;;;;;0.30;99.90;;;;;;5085718;28;19920;-73
2022/01/16 05:58:03;;;;;;;;;;;0.40;99.90;;;;;;5089331;28;19959;-73
2022/01/16 06:00:30;;;;;;;;;;;0.40;99.90;;;;;;5084236;28;19928;-73
2022/01/16 06:02:57;;;;;;;;;;;0.30;99.90;;;;;;5072997;28;20006;-73
2022/01/16 06:05:24;;;;;;;;;;;0.40;99.90;;;;;;5074253;28;20540;-73
2022/01/16 06:07:55;;;;;;;;;;;0.40;99.90;;;;;;5083944;28;20389;-73
2022/01/16 06:10:22;;;;;;;;;;;0.40;99.90;;;;;;5091057;28;19926;-73
2022/01/16 06:12:51;;;;;;;;;;;0.40;99.90;;;;;;5085045;28;19927;-73
2022/01/16 06:15:18;;;;;;;;;;;0.40;99.90;;;;;;5081798;28;19924;-74
2022/01/16 06:17:45;;;;;;;;;;;0.40;99.90;;;;;;5081011;28;20371;-73
2022/01/16 06:20:14;;;;;;;;;;;0.50;99.90;;;;;;5099611;27;19928;-73
2022/01/16 06:22:42;;;;;;;;;;;0.50;99.90;;;;;;5077404;28;19931;-73
2022/01/16 06:25:09;;;;;;;;;;;0.50;99.90;;;;;;5085196;28;20282;-74
2022/01/16 06:27:36;;;;;;;;;;;0.50;99.90;;;;;;5081667;28;19926;-75
2022/01/16 06:30:04;;;;;;;;;;;0.50;99.90;;;;;;5075085;28;19967;-73
2022/01/16 06:32:31;;;;;;;;;;;0.40;99.90;;;;;;5086191;28;19962;-73
2022/01/16 06:34:58;;;;;;;;;;;0.50;99.90;;;;;;5094332;28;20010;-73
2022/01/16 06:37:24;;;;;;;;;;;0.40;99.90;;;;;;5079107;28;20376;-73
2022/01/16 06:39:51;;;;;;;;;;;0.50;99.90;;;;;;5077115;28;21435;-73
2022/01/16 06:42:18;;;;;;;;;;;0.50;99.90;;;;;;5079610;28;20426;-73
2022/01/16 06:44:45;;;;;;;;;;;0.50;99.90;;;;;;5074733;28;19924;-73
2022/01/16 06:47:12;;;;;;;;;;;0.50;99.90;;;;;;5078690;28;19923;-73
2022/01/16 06:49:38;;;;;;;;;;;0.50;99.90;;;;;;5076228;28;19959;-73
2022/01/16 06:52:05;;;;;;;;;;;0.50;99.90;;;;;;5099199;28;20358;-73
2022/01/16 06:54:34;;;;;;;;;;;0.50;99.90;;;;;;5080084;28;22446;-74
2022/01/16 06:57:01;;;;;;;;;;;0.50;99.90;;;;;;5079170;28;19928;-74
2022/01/16 06:59:27;;;;;;;;;;;0.50;99.90;;;;;;5076439;28;19928;-74
2022/01/16 07:01:54;;;;;;;;;;;0.50;99.90;;;;;;5084423;28;19942;-75
2022/01/16 07:04:22;;;;;;;;;;;0.50;99.90;;;;;;5078890;28;19920;-75
2022/01/16 07:06:49;;;;;;;;;;;0.60;99.90;;;;;;5074845;28;19927;-74
2022/01/16 07:09:17;;;;;;;;;;;0.60;99.90;;;;;;5080921;28;20361;-75
2022/01/16 07:11:43;;;;;;;;;;;0.60;99.90;;;;;;5087744;28;19927;-75
2022/01/16 07:14:10;;;;;;;;;;;0.60;99.90;;;;;;5083028;28;19924;-75
2022/01/16 07:16:37;;;;;;;;;;;0.60;99.90;;;;;;5076586;28;19920;-75
2022/01/16 07:19:03;;;;;;;;;;;0.60;99.90;;;;;;5083976;28;19924;-75
2022/01/16 07:21:30;;;;;;;;;;;0.60;99.90;;;;;;5086834;28;19926;-76
2022/01/16 07:23:57;;;;;;;;;;;0.70;99.90;;;;;;5081635;28;20007;-76
2022/01/16 07:26:24;;;;;;;;;;;0.70;99.90;;;;;;5078426;28;19927;-76
2022/01/16 07:28:51;;;;;;;;;;;0.70;99.90;;;;;;5085951;28;20034;-76
2022/01/16 07:31:18;;;;;;;;;;;0.70;99.90;;;;;;5082084;28;20378;-75
2022/01/16 07:33:45;;;;;;;;;;;0.60;99.90;;;;;;5078631;28;20039;-76
2022/01/16 07:36:12;;;;;;;;;;;0.70;99.90;;;;;;5091436;28;20046;-76
2022/01/16 07:38:38;;;;;;;;;;;0.70;99.90;;;;;;5045533;28;19928;-75
2022/01/16 07:41:05;;;;;;;;;;;0.70;99.90;;;;;;5086277;28;19920;-75
2022/01/16 07:43:32;;;;;;;;;;;0.70;99.90;;;;;;5078935;28;20015;-76
2022/01/16 07:45:59;;;;;;;;;;;0.70;99.90;;;;;;5096808;28;19927;-76
2022/01/16 07:48:26;;;;;;;;;;;0.70;99.90;;;;;;5073695;28;19930;-75
2022/01/16 07:50:53;;;;;;;;;;;0.80;99.90;;;;;;5077106;28;19942;-75
2022/01/16 07:53:20;;;;;;;;;;;0.70;99.90;;;;;;5074150;28;20013;-76
2022/01/16 07:55:46;;;;;;;;;;;0.80;99.90;;;;;;5086541;28;19920;-75
2022/01/16 07:58:13;;;;;;;;;;;0.80;99.90;;;;;;5080303;28;20395;-76
2022/01/16 08:00:40;;;;;;;;;;;0.80;99.90;;;;;;5079689;28;19959;-75
2022/01/16 08:03:07;;;;;;;;;;;0.80;99.90;;;;;;5085882;28;20584;-75
2022/01/16 08:05:34;;;;;;;;;;;0.80;99.90;;;;;;5086371;28;19920;-75
2022/01/16 08:08:03;;;;;;;;;;;0.90;99.90;;;;;;5081324;28;20275;-75
2022/01/16 08:10:31;;;;;;;;;;;0.90;99.90;;;;;;5096859;27;20363;-75
2022/01/16 08:12:58;;;;;;;;;;;0.80;99.90;;;;;;5078937;28;19924;-75
2022/01/16 08:15:25;;;;;;;;;;;0.80;99.90;;;;;;5077810;28;19970;-75
2022/01/16 08:17:52;;;;;;;;;;;0.90;99.90;;;;;;5080270;28;20047;-76
2022/01/16 08:20:19;;;;;;;;;;;0.90;99.90;;;;;;5072970;28;20007;-75
2022/01/16 08:22:45;;;;;;;;;;;0.90;99.90;;;;;;5075340;28;20015;-76
2022/01/16 08:25:13;;;;;;;;;;;1.00;99.90;;;;;;5080866;28;19973;-76
2022/01/16 08:27:40;;;;;;;;;;;1.00;99.90;;;;;;5078046;28;19996;-75
2022/01/16 08:30:07;;;;;;;;;;;1.10;99.90;;;;;;5072222;28;19920;-75
2022/01/16 08:32:34;;;;;;;;;;;1.10;99.90;;;;;;5079327;28;19995;-75
2022/01/16 08:35:00;;;;;;;;;;;1.00;99.90;;;;;;5073939;28;19927;-76
2022/01/16 08:37:27;;;;;;;;;;;1.00;99.90;;;;;;5080235;28;19951;-75
2022/01/16 08:39:54;;;;;;;;;;;1.10;99.90;;;;;;5078766;28;20409;-75
2022/01/16 08:42:21;;;;;;;;;;;1.10;99.90;;;;;;5084676;28;19920;-75
2022/01/16 08:44:49;;;;;;;;;;;1.10;99.90;;;;;;5079767;28;19924;-75
2022/01/16 08:47:17;;;;;;;;;;;1.10;99.90;;;;;;5076931;28;19950;-75
2022/01/16 08:49:44;;;;;;;;;;;1.10;99.90;;;;;;5099045;28;24100;-75
2022/01/16 08:52:10;;;;;;;;;;;1.10;99.90;;;;;;5082920;28;20337;-76
2022/01/16 08:54:37;;;;;;;;;;;1.10;99.90;;;;;;5075929;28;20290;-76
2022/01/16 08:57:04;;;;;;;;;;;1.10;99.90;;;;;;5082213;28;19921;-77
2022/01/16 08:59:31;;;;;;;;;;;1.10;99.90;;;;;;5081430;28;19931;-75
2022/01/16 09:01:58;;;;;;;;;;;1.10;99.90;;;;;;5086891;28;20031;-75
2022/01/16 09:04:25;;;;;;;;;;;1.20;99.90;;;;;;5084780;28;20019;-76
2022/01/16 09:06:51;;;;;;;;;;;1.20;99.90;;;;;;5089786;28;19926;-76
2022/01/16 09:09:18;;;;;;;;;;;1.20;99.90;;;;;;5076941;28;19935;-76
2022/01/16 09:11:45;;;;;;;;;;;1.20;99.90;;;;;;5077990;28;19920;-75
2022/01/16 09:14:11;;;;;;;;;;;1.20;99.90;;;;;;5084134;28;19930;-75
2022/01/16 09:16:38;;;;;;;;;;;1.10;99.90;;;;;;5079197;28;20402;-75
2022/01/16 09:19:05;;;;;;;;;;;1.20;99.90;;;;;;5081369;28;19998;-75
2022/01/16 09:21:32;;;;;;;;;;;1.30;99.90;;;;;;5076995;28;19950;-74
2022/01/16 09:23:58;;;;;;;;;;;1.30;99.90;;;;;;5092365;28;19967;-75
2022/01/16 09:26:26;;;;;;;;;;;1.30;99.90;;;;;;5074757;28;19921;-75
2022/01/16 09:28:53;;;;;;;;;;;1.30;99.90;;;;;;5074609;28;19920;-75
2022/01/16 09:31:20;;;;;;;;;;;1.30;99.90;;;;;;5076984;28;20452;-75
2022/01/16 09:33:46;;;;;;;;;;;1.40;99.90;;;;;;5082259;28;19928;-75
2022/01/16 09:36:13;;;;;;;;;;;1.30;99.90;;;;;;5086925;28;20359;-75
2022/01/16 09:38:47;;;;;;;;;;;1.40;99.90;;;;;;5078371;28;19926;-75
2022/01/16 09:41:14;;;;;;;;;;;1.50;99.90;;;;;;5082067;28;19923;-75
2022/01/16 09:43:41;;;;;;;;;;;1.50;99.90;;;;;;5085066;28;19928;-75
2022/01/16 09:46:08;;;;;;;;;;;1.50;99.90;;;;;;5081452;28;19942;-75
2022/01/16 09:48:34;;;;;;;;;;;1.70;99.90;;;;;;5078580;28;19989;-75
2022/01/16 09:51:01;;;;;;;;;;;1.90;99.90;;;;;;5084945;28;20264;-75
2022/01/16 09:53:30;;;;;;;;;;;2.10;99.90;;;;;;5083954;28;20426;-75
2022/01/16 09:55:57;;;;;;;;;;;2.20;99.90;;;;;;5086598;28;19928;-77
2022/01/16 09:58:23;;;;;;;;;;;2.20;99.90;;;;;;5085835;28;20284;-76
2022/01/16 10:00:51;;;;;;;;;;;2.10;99.90;;;;;;5077881;28;19924;-75
2022/01/16 10:03:34;;;;;;;;;;;2.10;99.90;;;;;;5099428;28;20007;-75
2022/01/16 10:06:22;;;;;;;;;;;2.10;99.90;;;;;;5092925;28;19920;-75
2022/01/16 10:08:50;;;;;;;;;;;2.10;99.90;;;;;;5077720;28;20371;-75
2022/01/16 10:11:19;;;;;;;;;;;2.00;99.90;;;;;;5088714;28;19924;-75
2022/01/16 10:13:59;;;;;;;;;;;2.00;99.90;;;;;;5089334;28;19927;-74
2022/01/16 10:16:27;;;;;;;;;;;1.90;99.90;;;;;;5083773;28;19920;-74
2022/01/16 10:18:53;;;;;;;;;;;1.90;99.90;;;;;;5087528;28;19920;-74
2022/01/16 10:21:37;;;;;;;;;;;2.00;99.90;;;;;;5085600;28;19938;-74
2022/01/16 10:24:19;;;;;;;;;;;2.00;99.90;;;;;;5089443;28;19938;-75
2022/01/16 10:26:47;;;;;;;;;;;1.90;99.90;;;;;;5075412;28;19920;-75
2022/01/16 10:29:18;;;;;;;;;;;1.90;99.90;;;;;;5077192;28;19920;-74
2022/01/16 10:31:45;;;;;;;;;;;1.80;99.90;;;;;;5089103;28;20010;-74
2022/01/16 10:34:31;;;;;;;;;;;1.80;99.90;;;;;;5083747;28;20382;-75
2022/01/16 10:36:59;;;;;;;;;;;1.70;99.90;;;;;;5078301;28;20850;-75
2022/01/16 10:39:25;;;;;;;;;;;1.70;99.90;;;;;;5080882;28;19928;-75
2022/01/16 10:42:11;;;;;;;;;;;1.60;99.90;;;;;;5079075;28;19928;-75
2022/01/16 10:44:38;;;;;;;;;;;1.70;99.90;;;;;;5079250;28;20496;-75
2022/01/16 10:47:23;;;;;;;;;;;1.70;99.90;;;;;;5086435;28;19920;-75
2022/01/16 10:50:02;;;;;;;;;;;1.70;99.90;;;;;;5085114;28;19971;-75
2022/01/16 10:52:29;;;;;;;;;;;1.70;99.90;;;;;;5077282;28;19924;-75
2022/01/16 10:55:03;;;;;;;;;;;1.70;99.90;;;;;;5081360;28;19921;-75
2022/01/16 10:57:31;;;;;;;;;;;1.70;99.90;;;;;;5081337;28;19921;-75
2022/01/16 11:00:07;;;;;;;;;;;1.80;99.90;;;;;;5079191;28;20359;-75
2022/01/16 11:02:34;;;;;;;;;;;1.80;99.90;;;;;;5086060;28;19938;-74
2022/01/16 11:05:08;;;;;;;;;;;2.00;99.90;;;;;;5083041;28;20395;-75
2022/01/16 11:07:36;;;;;;;;;;;1.90;99.90;;;;;;5085124;28;20074;-75
2022/01/16 11:10:26;;;;;;;;;;;1.90;99.90;;;;;;5076564;28;20370;-75
2022/01/16 11:12:59;;;;;;;;;;;2.00;99.90;;;;;;5080288;28;19959;-75
2022/01/16 11:15:26;;;;;;;;;;;2.10;99.90;;;;;;5083477;28;19920;-75
2022/01/16 11:17:53;;;;;;;;;;;2.00;99.90;;;;;;5078800;28;19999;-75
2022/01/16 11:20:27;;;;;;;;;;;2.10;99.90;;;;;;5087686;28;19932;-75
2022/01/16 11:22:59;;;;;;;;;;;2.10;99.90;;;;;;5076436;28;19920;-74
2022/01/16 11:25:36;;;;;;;;;;;2.10;99.90;;;;;;5081073;28;19932;-75
2022/01/16 11:28:05;;;;;;;;;;;2.10;99.90;;;;;;5075668;28;20011;-74
2022/01/16 11:30:33;;;;;;;;;;;2.10;99.90;;;;;;5081420;28;19943;-75
2022/01/16 11:33:01;;;;;;;;;;;2.00;99.90;;;;;;5077566;28;19927;-75
2022/01/16 11:35:28;;;;;;;;;;;2.00;99.90;;;;;;5058924;28;19923;-75
2022/01/16 11:37:55;;;;;;;;;;;2.00;99.90;;;;;;5085000;28;20019;-73
2022/01/16 11:40:35;;;;;;;;;;;2.00;99.90;;;;;;5088528;28;19943;-74
2022/01/16 11:43:12;;;;;;;;;;;2.00;99.90;;;;;;5074991;28;20310;-75
2022/01/16 11:45:48;;;;;;;;;;;1.90;99.90;;;;;;5067198;28;20231;-75
2022/01/16 11:48:34;;;;;;;;;;;1.90;99.90;;;;;;5077451;28;19924;-73
2022/01/16 11:51:34;;;;;;;;;;;2.00;99.90;;;;;;5075277;28;20015;-75
2022/01/16 11:54:01;;;;;;;;;;;2.10;99.90;;;;;;5072440;28;20015;-75
2022/01/16 11:56:40;;;;;;;;;;;2.20;99.90;;;;;;5068083;28;20022;-75
2022/01/16 11:59:22;;;;;;;;;;;2.20;99.90;;;;;;5076753;28;20387;-75
2022/01/16 12:01:49;;;;;;;;;;;2.20;99.90;;;;;;5077214;28;19921;-75
2022/01/16 12:04:28;;;;;;;;;;;2.40;99.90;;;;;;5069510;28;19928;-73
2022/01/16 12:07:15;;;;;;;;;;;2.50;99.90;;;;;;5069855;28;19924;-75
2022/01/16 12:12:11;;;;;;;;;;;2.60;99.90;;;;;;5075825;28;19960;-73
2022/01/16 12:14:57;;;;;;;;;;;2.70;99.90;;;;;;5071795;28;20023;-73
2022/01/16 12:17:24;;;;;;;;;;;2.80;99.90;;;;;;5076477;28;19923;-72
2022/01/16 12:19:51;;;;;;;;;;;2.90;99.90;;;;;;5072523;28;19929;-73
2022/01/16 12:22:18;;;;;;;;;;;3.00;99.90;;;;;;5065274;28;20426;-72
2022/01/16 12:24:48;;;;;;;;;;;3.10;99.90;;;;;;5066834;28;19924;-73
2022/01/16 12:27:35;;;;;;;;;;;3.10;99.90;;;;;;5076695;28;19924;-73
2022/01/16 12:30:16;;;;;;;;;;;3.10;99.90;;;;;;5062417;28;20022;-73
2022/01/16 12:32:52;;;;;;;;;;;3.20;99.90;;;;;;5043486;28;19956;-73
2022/01/16 12:35:37;;;;;;;;;;;3.30;99.90;;;;;;5050912;28;20441;-73
2022/01/16 12:38:11;;;;;;;;;;;3.40;99.90;;;;;;5063510;28;19924;-73
2022/01/16 12:40:39;;;;;;;;;;;3.50;99.90;;;;;;5061578;28;20023;-73
2022/01/16 12:43:09;;;;;;;;;;;3.60;99.90;;;;;;5041723;28;20300;-73
2022/01/16 12:45:37;;;;;;;;;;;3.70;99.90;;;;;;5059346;28;19931;-73
2022/01/16 12:48:04;;;;;;;;;;;3.70;99.90;;;;;;5060988;28;20028;-73
2022/01/16 12:50:32;;;;;;;;;;;3.70;99.90;;;;;;5057467;28;19928;-73
2022/01/16 12:52:59;;;;;;;;;;;3.80;99.90;;;;;;5043486;28;19924;-73
2022/01/16 12:55:26;;;;;;;;;;;3.60;99.90;;;;;;5055884;28;19931;-73
2022/01/16 12:57:53;;;;;;;;;;;3.50;99.90;;;;;;5046760;28;19920;-73
2022/01/16 13:00:20;;;;;;;;;;;3.70;99.90;;;;;;5041265;28;19924;-73
2022/01/16 13:02:54;;;;;;;;;;;4.30;99.90;;;;;;5056552;28;20594;-73
2022/01/16 13:05:21;;;;;;;;;;;4.70;99.90;;;;;;5057838;28;19931;-74
2022/01/16 13:07:59;;;;;;;;;;;4.70;99.90;;;;;;5069730;28;19924;-73
2022/01/16 13:10:26;;;;;;;;;;;4.50;99.90;;;;;;5070212;28;19970;-74
2022/01/16 13:12:53;;;;;;;;;;;4.50;99.90;;;;;;5078019;28;19924;-73
2022/01/16 13:15:23;;;;;;;;;;;4.70;99.90;;;;;;5084922;28;19943;-73
2022/01/16 13:17:49;;;;;;;;;;;4.80;99.90;;;;;;5077059;28;19924;-73
2022/01/16 13:20:21;;;;;;;;;;;4.80;99.90;;;;;;5084375;28;20385;-73
2022/01/16 13:22:49;;;;;;;;;;;4.70;99.90;;;;;;5081362;28;19920;-73
2022/01/16 13:25:17;;;;;;;;;;;4.70;99.90;;;;;;5080769;28;19927;-73
2022/01/16 13:27:45;;;;;;;;;;;4.50;99.90;;;;;;5085428;28;20298;-73
2022/01/16 13:30:26;;;;;;;;;;;4.40;99.90;;;;;;5079393;28;19978;-73
2022/01/16 13:33:01;;;;;;;;;;;4.30;99.90;;;;;;5081284;28;20009;-73
2022/01/16 13:35:29;;;;;;;;;;;4.20;99.90;;;;;;5075914;28;19921;-73
2022/01/16 13:38:05;;;;;;;;;;;4.10;99.90;;;;;;5070445;28;20019;-72
2022/01/16 13:40:39;;;;;;;;;;;4.00;99.90;;;;;;5083502;28;20290;-72
2022/01/16 13:43:11;;;;;;;;;;;3.90;99.90;;;;;;5053281;28;19921;-72
2022/01/16 13:45:41;;;;;;;;;;;3.90;99.90;;;;;;5091959;28;19931;-72
2022/01/16 13:48:10;;;;;;;;;;;3.90;99.90;;;;;;5076020;28;19938;-73
2022/01/16 13:50:43;;;;;;;;;;;3.90;99.90;;;;;;5076369;28;20007;-73
2022/01/16 13:53:10;;;;;;;;;;;3.80;99.90;;;;;;5073097;28;19967;-72
2022/01/16 13:55:56;;;;;;;;;;;3.80;99.90;;;;;;5082592;28;19927;-73
2022/01/16 13:58:24;;;;;;;;;;;3.80;99.90;;;;;;5056442;28;19920;-72
2022/01/16 14:00:51;;;;;;;;;;;3.70;99.90;;;;;;5088078;28;19920;-72
2022/01/16 14:03:23;;;;;;;;;;;3.60;99.90;;;;;;5078186;28;20393;-73
2022/01/16 14:05:57;;;;;;;;;;;3.50;99.90;;;;;;5084164;28;19931;-72
2022/01/16 14:08:26;;;;;;;;;;;3.40;99.90;;;;;;5081092;28;19959;-72
2022/01/16 14:11:07;;;;;;;;;;;3.30;99.90;;;;;;5077228;28;19924;-72
2022/01/16 14:13:33;;;;;;;;;;;3.30;99.90;;;;;;5090981;28;19982;-72
2022/01/16 14:16:01;;;;;;;;;;;3.10;99.90;;;;;;5087218;28;19919;-73
2022/01/16 14:24:02;;;;;;;;;;;3.10;99.90;;;;;;5073763;28;20019;-72
2022/01/16 14:26:29;;;;;;;;;;;3.00;99.90;;;;;;5090258;28;19969;-72
2022/01/16 14:28:56;;;;;;;;;;;3.10;99.90;;;;;;5077328;28;20480;-72
2022/01/16 14:31:23;;;;;;;;;;;3.00;99.90;;;;;;5077297;28;19928;-72
2022/01/16 14:33:51;;;;;;;;;;;3.00;99.90;;;;;;5091805;28;19927;-73
2022/01/16 14:36:18;;;;;;;;;;;2.90;99.90;;;;;;5051203;28;19925;-73
2022/01/16 14:38:44;;;;;;;;;;;2.80;99.90;;;;;;5083560;28;20018;-73
2022/01/16 14:41:12;;;;;;;;;;;2.80;99.90;;;;;;5085065;28;19989;-73
2022/01/16 14:43:54;;;;;;;;;;;2.70;99.90;;;;;;5090961;28;19924;-73
2022/01/16 14:46:22;;;;;;;;;;;2.70;99.90;;;;;;5081432;28;19921;-73
2022/01/16 14:48:50;;;;;;;;;;;2.70;99.90;;;;;;5077999;28;20374;-73
2022/01/16 14:51:17;;;;;;;;;;;2.70;99.90;;;;;;5082964;28;19963;-72
2022/01/16 14:53:44;;;;;;;;;;;2.60;99.90;;;;;;5086103;28;19973;-73
2022/01/16 14:56:11;;;;;;;;;;;2.60;99.90;;;;;;5084480;28;20019;-73
2022/01/16 14:58:38;;;;;;;;;;;2.60;99.90;;;;;;5087164;28;19924;-73
2022/01/16 15:01:05;;;;;;;;;;;2.60;99.90;;;;;;5076778;28;20003;-72
2022/01/16 15:03:32;;;;;;;;;;;2.60;99.90;;;;;;5082380;28;19921;-73
2022/01/16 15:06:06;;;;;;;;;;;2.60;99.90;;;;;;5054585;28;20374;-72
2022/01/16 15:08:33;;;;;;;;;;;2.60;99.90;;;;;;5074721;28;19999;-73
2022/01/16 15:11:00;;;;;;;;;;;2.60;99.90;;;;;;5082711;28;19946;-73
2022/01/16 15:13:27;;;;;;;;;;;2.60;99.90;;;;;;5078038;28;20402;-72
2022/01/16 15:15:54;;;;;;;;;;;2.60;99.90;;;;;;5080857;28;20371;-73
2022/01/16 15:18:21;;;;;;;;;;;2.60;99.90;;;;;;5072917;28;19927;-73
2022/01/16 15:20:51;;;;;;;;;;;2.60;99.90;;;;;;5083146;28;19926;-72
2022/01/16 15:23:28;;;;;;;;;;;2.50;99.90;;;;;;5056688;28;19920;-72
2022/01/16 15:25:56;;;;;;;;;;;2.40;99.90;;;;;;5079610;28;20341;-72
2022/01/16 15:28:24;;;;;;;;;;;2.40;99.90;;;;;;5076496;28;19965;-74
2022/01/16 15:30:51;;;;;;;;;;;2.30;99.90;;;;;;5080124;28;19920;-74